Franconia, New Hampshire
Current Conditions -  °F | °C
As of 8:52 AM on Thursday 27 Nov 2014 (Local Time) from KHIE Reporting Station
Light Snow Light Snow  
Wind Chill: 21°   Ceiling: 1700
Heat Index: 26°   Visibility: 8mi
Dew Point: 20°   Wind: 5mph
Humidity: 78%   Direction: NA
Pressure: 29.9"   Gusts: NA
Location:  44.23°N, 71.75°W
Report Text: KHIE 271352Z AUTO VRB04KT 8SM -SN BKN017 OVC037 M03/M07 A2990 RMK AO2 SNB1256 SLP139 P0000 T10331067
Loading
Personal Weather Stations






























Interactive Weather Map New forecast layout! Learn more

10-Day Weather Forecast

Advertisements
Track Severe Weather on mobile